createdAt,value
2023-02-28T00:01:31.096Z,95727.34
2023-02-28T00:04:00.953Z,95724.41
2023-02-28T00:06:29.689Z,95721.75
2023-02-28T00:08:58.066Z,95719.09
2023-02-28T00:11:26.584Z,95725.38
2023-02-28T00:13:55.046Z,95730.97
2023-02-28T00:16:24.542Z,95728.88
2023-02-28T00:18:53.285Z,95726.50
2023-02-28T00:21:23.320Z,95726.53
2023-02-28T00:23:51.636Z,95724.94
2023-02-28T00:26:21.795Z,95734.44
2023-02-28T00:28:50.765Z,95730.97
2023-02-28T00:31:19.079Z,95718.78
2023-02-28T00:33:47.366Z,95725.63
2023-02-28T00:36:15.671Z,95729.88
2023-02-28T00:38:45.528Z,95730.47
2023-02-28T00:41:13.813Z,95735.28
2023-02-28T00:43:42.409Z,95726.25
2023-02-28T00:46:11.228Z,95726.25
2023-02-28T00:48:39.798Z,95726.22
2023-02-28T00:51:08.278Z,95730.09
2023-02-28T00:53:36.523Z,95729.66
2023-02-28T00:56:06.749Z,95732.63
2023-02-28T00:58:35.098Z,95726.75
2023-02-28T01:01:03.472Z,95727.84
2023-02-28T01:03:31.727Z,95722.00
2023-02-28T01:06:00.166Z,95730.78
2023-02-28T01:08:28.463Z,95734.13
2023-02-28T01:10:56.721Z,95731.69
2023-02-28T01:13:26.949Z,95729.50
2023-02-28T01:15:58.034Z,95668.94
2023-02-28T01:18:26.571Z,95721.97
2023-02-28T01:20:55.106Z,95685.25
2023-02-28T01:23:24.988Z,95734.84
2023-02-28T01:25:53.785Z,95743.66
2023-02-28T01:28:22.366Z,95749.63
2023-02-28T01:30:53.202Z,95742.13
2023-02-28T01:33:21.631Z,95741.19
2023-02-28T01:35:50.325Z,95748.66
2023-02-28T01:38:23.130Z,95739.91
2023-02-28T01:40:52.622Z,95749.78
2023-02-28T01:43:26.040Z,95748.50
2023-02-28T01:45:57.654Z,95757.22
2023-02-28T01:48:29.396Z,95760.53
2023-02-28T01:51:02.435Z,95736.63
2023-02-28T01:53:36.802Z,95767.31
2023-02-28T01:56:08.535Z,95767.09
2023-02-28T01:58:38.705Z,95679.44
2023-02-28T02:01:08.408Z,95757.53
2023-02-28T02:03:38.302Z,95772.44
2023-02-28T02:06:07.064Z,95773.78
2023-02-28T02:08:35.403Z,95776.84
2023-02-28T02:11:05.122Z,95783.91
2023-02-28T02:13:56.702Z,95783.44
2023-02-28T02:16:47.486Z,95773.63
2023-02-28T02:19:48.532Z,95759.50
2023-02-28T02:22:44.827Z,95791.06
2023-02-28T02:25:30.909Z,95803.13
2023-02-28T02:28:25.518Z,95794.44
2023-02-28T02:31:21.158Z,95802.88
2023-02-28T02:34:21.130Z,95808.59
2023-02-28T02:36:54.430Z,95805.81
2023-02-28T02:39:31.475Z,95791.31
2023-02-28T02:42:05.429Z,95812.56
2023-02-28T02:44:40.996Z,95769.75
2023-02-28T02:47:14.186Z,95755.44
2023-02-28T02:49:48.483Z,95805.88
2023-02-28T02:52:20.593Z,95803.25
2023-02-28T02:54:50.899Z,95804.44
2023-02-28T02:57:28.463Z,95817.25
2023-02-28T02:59:59.295Z,95800.16
2023-02-28T03:02:35.441Z,95807.88
2023-02-28T03:05:09.978Z,95805.78
2023-02-28T03:07:38.316Z,95754.09
2023-02-28T03:10:38.877Z,95810.78
2023-02-28T03:13:34.927Z,95814.63
2023-02-28T03:16:23.073Z,95819.28
2023-02-28T03:19:01.548Z,95771.97
2023-02-28T03:21:37.665Z,95822.53
2023-02-28T03:24:10.416Z,95803.13
2023-02-28T03:26:44.564Z,95823.88
2023-02-28T03:29:23.651Z,95826.59
2023-02-28T03:31:58.656Z,95802.34
2023-02-28T03:34:32.113Z,95822.06
2023-02-28T03:37:06.552Z,95824.44
2023-02-28T03:39:41.700Z,95805.84
2023-02-28T03:42:14.022Z,95825.19
2023-02-28T03:44:45.391Z,95827.34
2023-02-28T03:47:18.919Z,95828.69
2023-02-28T03:49:51.556Z,95840.66
2023-02-28T03:52:25.867Z,95784.53
2023-02-28T03:54:58.683Z,95778.97
2023-02-28T03:57:35.147Z,95770.81
2023-02-28T04:00:08.210Z,95835.75
2023-02-28T04:02:36.590Z,95782.50
2023-02-28T04:05:04.951Z,95841.25
2023-02-28T04:07:35.334Z,95844.38
2023-02-28T04:10:03.735Z,95856.19
2023-02-28T04:12:32.089Z,95851.38
2023-02-28T04:15:00.383Z,95840.19
2023-02-28T04:17:29.270Z,95861.97
2023-02-28T04:19:58.365Z,95853.16
2023-02-28T04:22:28.122Z,95856.72
2023-02-28T04:24:57.846Z,95848.81
2023-02-28T04:27:26.072Z,95852.63
2023-02-28T04:29:54.362Z,95854.66
2023-02-28T04:32:22.665Z,95861.56
2023-02-28T04:34:50.844Z,95856.28
2023-02-28T04:37:19.171Z,95856.22
2023-02-28T04:39:47.430Z,95855.41
2023-02-28T04:42:17.594Z,95868.16
2023-02-28T04:44:45.844Z,95860.66
2023-02-28T04:47:14.102Z,95854.47
2023-02-28T04:49:42.652Z,95853.28
2023-02-28T04:52:11.513Z,95855.50
2023-02-28T04:54:40.977Z,95863.28
2023-02-28T04:57:09.325Z,95867.03
2023-02-28T04:59:39.478Z,95863.22
2023-02-28T05:02:08.807Z,95870.81
2023-02-28T05:04:37.603Z,95806.59
2023-02-28T05:07:05.965Z,95856.59
2023-02-28T05:09:35.738Z,95870.44
2023-02-28T05:12:04.392Z,95884.66
2023-02-28T05:14:32.689Z,95880.75
2023-02-28T05:17:02.324Z,95882.63
2023-02-28T05:19:30.983Z,95881.19
2023-02-28T05:21:59.473Z,95878.69
2023-02-28T05:24:27.873Z,95875.72
2023-02-28T05:26:57.074Z,95879.41
2023-02-28T05:29:25.433Z,95793.22
2023-02-28T05:31:53.875Z,95885.50
2023-02-28T05:34:23.731Z,95885.75
2023-02-28T05:36:52.133Z,95887.41
2023-02-28T05:39:20.467Z,95876.78
2023-02-28T05:41:48.846Z,95881.91
2023-02-28T05:44:18.006Z,95889.38
2023-02-28T05:46:46.386Z,95898.03
2023-02-28T05:49:14.723Z,95892.44
2023-02-28T05:51:44.438Z,95857.13
2023-02-28T05:54:13.953Z,95891.09
2023-02-28T05:56:45.203Z,95904.34
2023-02-28T05:59:14.571Z,95854.69
2023-02-28T06:01:49.264Z,95865.88
2023-02-28T06:04:31.022Z,95910.56
2023-02-28T06:07:02.844Z,95914.81
2023-02-28T06:09:31.219Z,95909.81
2023-02-28T06:12:00.650Z,95919.16
2023-02-28T06:14:28.934Z,95912.25
2023-02-28T06:16:58.949Z,95917.31
2023-02-28T06:19:27.778Z,95919.44
2023-02-28T06:21:59.940Z,95920.75
2023-02-28T06:24:32.546Z,95921.66
2023-02-28T06:27:06.261Z,95934.97
2023-02-28T06:29:35.620Z,95931.91
2023-02-28T06:32:04.324Z,95926.38
2023-02-28T06:34:32.620Z,95926.59
2023-02-28T06:37:03.244Z,95929.88
2023-02-28T06:39:33.298Z,95933.25
2023-02-28T06:42:01.640Z,95918.03
2023-02-28T06:44:36.548Z,95912.00
2023-02-28T06:47:06.364Z,95876.56
2023-02-28T06:49:36.640Z,95932.16
2023-02-28T06:52:05.524Z,95937.59
2023-02-28T06:54:35.196Z,95930.44
2023-02-28T06:57:03.431Z,95929.59
2023-02-28T06:59:31.625Z,95935.97
2023-02-28T07:01:59.901Z,95926.22
2023-02-28T07:04:28.909Z,95919.63
2023-02-28T07:06:58.118Z,95926.28
2023-02-28T07:09:30.857Z,95866.94
2023-02-28T07:12:01.670Z,95930.75
2023-02-28T07:14:29.922Z,95927.34
2023-02-28T07:16:58.379Z,95925.84
2023-02-28T07:19:26.690Z,95934.38
2023-02-28T07:21:54.962Z,95935.38
2023-02-28T07:24:26.895Z,95928.38
2023-02-28T07:26:55.224Z,95921.50
2023-02-28T07:29:24.909Z,95924.97
2023-02-28T07:31:54.334Z,95865.38
2023-02-28T07:34:22.860Z,95886.31
2023-02-28T07:36:54.740Z,95937.69
2023-02-28T07:39:23.820Z,95932.72
2023-02-28T07:41:52.016Z,95934.53
2023-02-28T07:44:20.343Z,95938.81
2023-02-28T07:46:50.139Z,95936.19
2023-02-28T07:49:18.405Z,95936.44
2023-02-28T07:51:46.839Z,95932.72
2023-02-28T07:54:15.108Z,95935.13
2023-02-28T07:56:43.370Z,95930.31
2023-02-28T07:59:11.794Z,95926.63
2023-02-28T08:01:40.229Z,95941.78
2023-02-28T08:04:09.834Z,95928.16
2023-02-28T08:06:38.134Z,95929.53
2023-02-28T08:09:06.418Z,95928.19
2023-02-28T08:11:34.756Z,95933.16
2023-02-28T08:14:03.115Z,95929.75
2023-02-28T08:16:31.455Z,95925.41
2023-02-28T08:18:59.812Z,95929.94
2023-02-28T08:21:29.919Z,95926.19
2023-02-28T08:23:58.735Z,95922.34
2023-02-28T08:26:27.004Z,95927.09
2023-02-28T08:28:57.011Z,95912.97
2023-02-28T08:31:25.670Z,95916.16
2023-02-28T08:33:54.309Z,95904.28
2023-02-28T08:36:22.722Z,95906.44
2023-02-28T08:38:52.477Z,95909.53
2023-02-28T08:41:20.774Z,95912.34
2023-02-28T08:43:48.945Z,95915.78
2023-02-28T08:46:17.205Z,95860.09
2023-02-28T08:48:46.331Z,95913.22
2023-02-28T08:51:17.358Z,95908.09
2023-02-28T08:53:45.695Z,95912.84
2023-02-28T08:56:17.778Z,95898.44
2023-02-28T08:58:47.244Z,95879.28
2023-02-28T09:01:17.604Z,95898.03
2023-02-28T09:03:47.242Z,95893.53
2023-02-28T09:06:16.749Z,95886.47
2023-02-28T09:08:45.603Z,95882.28
2023-02-28T09:11:15.569Z,95875.66
2023-02-28T09:13:43.865Z,95884.41
2023-02-28T09:16:14.156Z,95883.00
2023-02-28T09:18:43.070Z,95878.63
2023-02-28T09:21:15.185Z,95866.63
2023-02-28T09:23:43.702Z,95867.75
2023-02-28T09:26:18.088Z,95855.50
2023-02-28T09:28:46.606Z,95853.78
2023-02-28T09:31:16.300Z,95858.53
2023-02-28T09:33:44.874Z,95855.28
2023-02-28T09:36:13.243Z,95859.84
2023-02-28T09:38:41.973Z,95861.38
2023-02-28T09:41:15.716Z,95851.00
2023-02-28T09:43:49.600Z,95859.41
2023-02-28T09:46:29.480Z,95859.13
2023-02-28T09:48:59.241Z,95857.88
2023-02-28T09:51:40.307Z,95855.06
2023-02-28T09:54:11.877Z,95823.56
2023-02-28T09:56:43.663Z,95849.28
2023-02-28T09:59:26.994Z,95846.75
2023-02-28T10:02:01.101Z,95834.78
2023-02-28T10:04:44.299Z,95823.84
2023-02-28T10:07:24.116Z,95803.69
2023-02-28T10:09:57.308Z,95815.25
2023-02-28T10:12:28.492Z,95789.94
2023-02-28T10:15:03.524Z,95810.50
2023-02-28T10:17:55.022Z,95779.41
2023-02-28T10:20:31.026Z,95782.00
2023-02-28T10:23:08.626Z,95802.28
2023-02-28T10:25:38.678Z,95755.78
2023-02-28T10:28:13.330Z,95797.88
2023-02-28T10:30:46.312Z,95787.38
2023-02-28T10:33:22.401Z,95786.66
2023-02-28T10:35:51.221Z,95745.06
2023-02-28T10:38:21.945Z,95777.72
2023-02-28T10:40:50.644Z,95772.84
2023-02-28T10:43:25.756Z,95768.56
2023-02-28T10:46:03.440Z,95758.19
2023-02-28T10:48:40.390Z,95752.34
2023-02-28T10:51:10.134Z,95750.41
2023-02-28T10:54:00.703Z,95756.63
2023-02-28T10:56:32.329Z,95731.94
2023-02-28T10:59:03.355Z,95738.50
2023-02-28T11:01:41.640Z,95752.91
2023-02-28T11:04:37.056Z,95743.91
2023-02-28T11:07:07.397Z,95742.75
2023-02-28T11:09:37.902Z,95740.53
2023-02-28T11:12:08.703Z,95732.50
2023-02-28T11:14:42.595Z,95733.34
2023-02-28T11:17:21.716Z,95732.44
2023-02-28T11:19:54.844Z,95726.84
2023-02-28T11:22:27.168Z,95698.84
2023-02-28T11:24:58.248Z,95720.47
2023-02-28T11:27:49.307Z,95716.75
2023-02-28T11:30:34.573Z,95722.75
2023-02-28T11:33:23.853Z,95716.63
2023-02-28T11:35:53.442Z,95720.97
2023-02-28T11:38:21.758Z,95719.59
2023-02-28T11:41:04.871Z,95714.84
2023-02-28T11:43:59.428Z,95708.56
2023-02-28T11:46:36.103Z,95721.38
2023-02-28T11:49:21.101Z,95715.41
2023-02-28T11:51:53.933Z,95715.44
2023-02-28T11:54:49.700Z,95701.84
2023-02-28T11:57:32.694Z,95558.94
2023-02-28T12:00:08.996Z,95733.84
2023-02-28T12:02:53.291Z,95695.69
2023-02-28T12:05:31.635Z,95707.28
2023-02-28T12:08:08.448Z,95708.69
2023-02-28T12:10:44.469Z,95704.19
2023-02-28T12:13:23.712Z,95702.09
2023-02-28T12:16:14.442Z,95695.38
2023-02-28T12:18:55.632Z,95697.44
2023-02-28T12:21:36.331Z,95688.72
2023-02-28T12:24:29.731Z,95710.69
2023-02-28T12:27:01.936Z,95701.63
2023-02-28T12:29:33.162Z,95689.56
2023-02-28T12:32:07.445Z,95702.75
2023-02-28T12:34:39.466Z,95730.56
2023-02-28T12:37:16.054Z,95715.94
2023-02-28T12:39:50.898Z,95715.22
2023-02-28T12:42:26.429Z,95734.53
2023-02-28T12:44:59.107Z,95742.59
2023-02-28T12:47:27.570Z,95731.00
2023-02-28T12:50:00.965Z,95739.28
2023-02-28T12:52:43.042Z,95744.59
2023-02-28T12:55:22.088Z,95663.63
2023-02-28T12:57:56.167Z,95745.09
2023-02-28T13:00:27.929Z,95748.91
2023-02-28T13:03:19.519Z,95755.13
2023-02-28T13:06:22.400Z,95761.53
2023-02-28T13:09:06.920Z,95757.81
2023-02-28T13:11:41.068Z,95754.38
2023-02-28T13:14:22.360Z,95756.50
2023-02-28T13:17:01.465Z,95758.03
2023-02-28T13:19:32.266Z,95758.63
2023-02-28T13:22:01.720Z,95760.22
2023-02-28T13:24:47.660Z,95741.63
2023-02-28T13:27:35.413Z,95766.09
2023-02-28T13:30:24.432Z,95762.09
2023-02-28T13:33:24.210Z,95768.50
2023-02-28T13:36:09.505Z,95764.25
2023-02-28T13:38:45.118Z,95696.78
2023-02-28T13:41:46.622Z,95767.69
2023-02-28T13:44:18.753Z,95756.78
2023-02-28T13:47:35.914Z,95760.50
2023-02-28T13:50:30.925Z,95761.78
2023-02-28T13:53:29.016Z,95763.06
2023-02-28T13:56:06.850Z,95753.94
2023-02-28T13:58:46.718Z,95724.06
2023-02-28T14:01:30.151Z,95759.25
2023-02-28T14:04:18.260Z,95759.34
2023-02-28T14:06:51.109Z,95761.19
2023-02-28T14:09:25.983Z,95760.66
2023-02-28T14:11:54.838Z,95764.31
2023-02-28T14:14:57.751Z,95758.50
2023-02-28T14:17:28.372Z,95756.28
2023-02-28T14:19:57.158Z,95753.16
2023-02-28T14:22:46.839Z,95750.50
2023-02-28T14:25:26.397Z,95761.91
2023-02-28T14:28:06.817Z,95764.59
2023-02-28T14:30:58.477Z,95772.25
2023-02-28T14:33:40.958Z,95765.41
2023-02-28T14:36:16.993Z,95771.38
2023-02-28T14:38:49.467Z,95771.31
2023-02-28T14:41:22.534Z,95762.97
2023-02-28T14:43:53.348Z,95775.06
2023-02-28T14:46:22.272Z,95764.28
2023-02-28T14:48:52.994Z,95774.72
2023-02-28T14:51:22.840Z,95700.16
2023-02-28T14:53:56.675Z,95775.50
2023-02-28T14:56:28.504Z,95770.63
2023-02-28T14:58:58.073Z,95773.94
2023-02-28T15:01:27.625Z,95771.44
2023-02-28T15:04:08.398Z,95778.78
2023-02-28T15:06:36.658Z,95776.41
2023-02-28T15:09:15.680Z,95777.28
2023-02-28T15:11:47.319Z,95784.22
2023-02-28T15:14:21.556Z,95755.06
2023-02-28T15:16:55.193Z,95784.44
2023-02-28T15:19:27.371Z,95788.81
2023-02-28T15:22:02.255Z,95787.25
2023-02-28T15:24:39.506Z,95791.56
2023-02-28T15:27:10.281Z,95770.91
2023-02-28T15:29:47.393Z,95736.69
2023-02-28T15:32:29.616Z,95796.44
2023-02-28T15:35:01.155Z,95790.47
2023-02-28T15:37:32.235Z,95798.44
2023-02-28T15:40:12.522Z,95746.44
2023-02-28T15:42:40.926Z,95804.28
2023-02-28T15:45:30.841Z,95798.69
2023-02-28T15:48:13.726Z,95799.78
2023-02-28T15:50:44.384Z,95798.16
2023-02-28T15:53:18.856Z,95811.66
2023-02-28T15:55:47.560Z,95788.78
2023-02-28T15:58:25.166Z,95800.25
2023-02-28T16:01:08.591Z,95796.41
2023-02-28T16:03:47.451Z,95800.84
2023-02-28T16:06:37.951Z,95799.53
2023-02-28T16:09:09.550Z,95801.63
2023-02-28T16:11:42.285Z,95800.31
2023-02-28T16:14:17.490Z,95750.66
2023-02-28T16:16:48.295Z,95802.72
2023-02-28T16:19:16.667Z,95812.31
2023-02-28T16:21:46.421Z,95737.53
2023-02-28T16:24:14.864Z,95816.50
2023-02-28T16:26:47.655Z,95806.22
2023-02-28T16:29:21.857Z,95817.63
2023-02-28T16:31:50.190Z,95809.41
2023-02-28T16:34:18.516Z,95806.50
2023-02-28T16:36:49.484Z,95811.81
2023-02-28T16:39:17.683Z,95803.56
2023-02-28T16:41:47.594Z,95810.47
2023-02-28T16:44:27.224Z,95811.25
2023-02-28T16:46:57.369Z,95808.75
2023-02-28T16:49:25.742Z,95815.09
2023-02-28T16:51:55.752Z,95803.19
2023-02-28T16:54:24.061Z,95816.78
2023-02-28T16:56:52.524Z,95794.63
2023-02-28T16:59:31.182Z,95822.53
2023-02-28T17:01:59.937Z,95807.41
2023-02-28T17:04:28.539Z,95832.09
2023-02-28T17:06:58.164Z,95835.59
2023-02-28T17:09:40.138Z,95834.78
2023-02-28T17:12:10.317Z,95826.78
2023-02-28T17:14:38.572Z,95833.66
2023-02-28T17:17:07.020Z,95697.78
2023-02-28T17:19:37.155Z,95835.06
2023-02-28T17:22:06.958Z,95832.44
2023-02-28T17:24:35.285Z,95830.81
2023-02-28T17:27:03.646Z,95830.75
2023-02-28T17:29:31.930Z,95839.47
2023-02-28T17:32:03.092Z,95836.28
2023-02-28T17:34:38.388Z,95839.03
2023-02-28T17:37:08.163Z,95840.88
2023-02-28T17:39:36.499Z,95845.25
2023-02-28T17:42:05.282Z,95848.38
2023-02-28T17:44:33.545Z,95848.97
2023-02-28T17:47:02.095Z,95850.81
2023-02-28T17:49:30.407Z,95849.44
2023-02-28T17:51:58.714Z,95855.28
2023-02-28T17:54:28.490Z,95849.63
2023-02-28T17:56:56.976Z,95850.44
2023-02-28T17:59:25.301Z,95859.22
2023-02-28T18:01:53.507Z,95857.84
2023-02-28T18:04:21.881Z,95856.13
2023-02-28T18:06:51.122Z,95806.22
2023-02-28T18:09:22.846Z,95854.59
2023-02-28T18:11:53.893Z,95847.72
2023-02-28T18:14:24.702Z,95854.28
2023-02-28T18:16:54.131Z,95852.66
2023-02-28T18:19:22.891Z,95852.94
2023-02-28T18:21:53.404Z,95857.47
2023-02-28T18:24:23.143Z,95847.94
2023-02-28T18:26:52.859Z,95857.25
2023-02-28T18:29:23.255Z,95850.06
2023-02-28T18:31:51.804Z,95847.03
2023-02-28T18:34:20.762Z,95837.63
2023-02-28T18:36:51.085Z,95825.97
2023-02-28T18:39:19.714Z,95834.22
2023-02-28T18:41:48.017Z,95859.22
2023-02-28T18:44:20.152Z,95847.63
2023-02-28T18:46:49.228Z,95868.88
2023-02-28T18:49:17.609Z,95873.41
2023-02-28T18:51:46.843Z,95870.88
2023-02-28T18:54:16.504Z,95867.94
2023-02-28T18:56:45.136Z,95866.59
2023-02-28T18:59:13.685Z,95835.53
2023-02-28T19:01:44.674Z,95864.69
2023-02-28T19:04:14.729Z,95872.28
2023-02-28T19:06:43.276Z,95877.91
2023-02-28T19:09:11.842Z,95862.63
2023-02-28T19:11:40.718Z,95867.72
2023-02-28T19:14:09.741Z,95832.69
2023-02-28T19:16:38.308Z,95843.72
2023-02-28T19:19:08.239Z,95845.84
2023-02-28T19:21:37.339Z,95796.78
2023-02-28T19:24:06.156Z,95836.53
2023-02-28T19:26:34.538Z,95861.56
2023-02-28T19:29:05.015Z,95886.81
2023-02-28T19:31:33.747Z,95891.47
2023-02-28T19:34:02.448Z,95890.22
2023-02-28T19:36:32.098Z,95883.22
2023-02-28T19:39:00.448Z,95886.94
2023-02-28T19:41:29.068Z,95886.28
2023-02-28T19:43:57.442Z,95890.56
2023-02-28T19:46:26.405Z,95891.88
2023-02-28T19:48:55.405Z,95890.44
2023-02-28T19:51:24.365Z,95898.34
2023-02-28T19:53:54.199Z,95906.94
2023-02-28T19:56:22.540Z,95845.91
2023-02-28T19:58:50.818Z,95898.59
2023-02-28T20:01:20.511Z,95906.81
2023-02-28T20:03:50.548Z,95919.47
2023-02-28T20:06:19.526Z,95909.63
2023-02-28T20:08:47.789Z,95902.34
2023-02-28T20:11:18.358Z,95916.72
2023-02-28T20:13:47.002Z,95908.28
2023-02-28T20:16:16.608Z,95914.47
2023-02-28T20:18:46.319Z,95927.47
2023-02-28T20:21:16.710Z,95931.19
2023-02-28T20:23:45.772Z,95936.47
2023-02-28T20:26:14.399Z,95931.97
2023-02-28T20:28:44.908Z,95936.53
2023-02-28T20:31:14.127Z,95937.03
2023-02-28T20:33:43.917Z,95898.28
2023-02-28T20:36:15.783Z,95934.88
2023-02-28T20:38:44.521Z,95931.63
2023-02-28T20:41:13.502Z,95933.22
2023-02-28T20:43:43.375Z,95927.47
2023-02-28T20:46:12.061Z,95928.84
2023-02-28T20:48:40.887Z,95937.88
2023-02-28T20:51:09.444Z,95871.63
2023-02-28T20:53:37.868Z,95952.47
2023-02-28T20:56:09.037Z,95943.72
2023-02-28T20:58:39.298Z,95946.81
2023-02-28T21:01:12.995Z,95871.47
2023-02-28T21:03:41.696Z,95916.34
2023-02-28T21:06:10.291Z,95894.22
2023-02-28T21:08:40.053Z,95912.84
2023-02-28T21:11:10.144Z,95924.28
2023-02-28T21:13:38.894Z,95915.38
2023-02-28T21:16:10.461Z,95901.09
2023-02-28T21:18:39.823Z,95836.91
2023-02-28T21:21:09.698Z,95854.28
2023-02-28T21:23:38.095Z,95905.84
2023-02-28T21:26:08.019Z,95907.25
2023-02-28T21:28:37.182Z,95892.03
2023-02-28T21:31:07.897Z,95871.16
2023-02-28T21:33:37.943Z,95790.75
2023-02-28T21:36:08.540Z,95862.88
2023-02-28T21:38:37.790Z,95885.78
2023-02-28T21:41:06.943Z,95884.25
2023-02-28T21:43:35.548Z,95874.09
2023-02-28T21:46:04.792Z,95870.72
2023-02-28T21:48:33.876Z,95790.94
2023-02-28T21:51:06.614Z,95874.94
2023-02-28T21:53:37.371Z,95865.25
2023-02-28T21:56:08.521Z,95863.00
2023-02-28T21:58:36.839Z,95865.28
2023-02-28T22:01:09.317Z,95863.06
2023-02-28T22:03:38.698Z,95861.38
2023-02-28T22:06:14.271Z,95864.66
2023-02-28T22:08:43.236Z,95854.38
2023-02-28T22:11:11.898Z,95857.69
2023-02-28T22:13:42.350Z,95858.25
2023-02-28T22:16:12.962Z,95808.72
2023-02-28T22:18:42.154Z,95822.34
2023-02-28T22:21:13.118Z,95858.03
2023-02-28T22:23:42.823Z,95846.41
2023-02-28T22:26:13.317Z,95852.34
2023-02-28T22:28:42.543Z,95823.56
2023-02-28T22:31:16.226Z,95842.69
2023-02-28T22:33:45.268Z,95848.09
2023-02-28T22:36:16.672Z,95832.44
2023-02-28T22:38:46.177Z,95847.28
2023-02-28T22:41:14.982Z,95845.38
2023-02-28T22:43:44.296Z,95845.06
2023-02-28T22:46:14.467Z,95844.34
2023-02-28T22:48:42.797Z,95841.88
2023-02-28T22:51:14.943Z,95839.97
2023-02-28T22:53:46.785Z,95841.13
2023-02-28T22:56:16.609Z,95836.69
2023-02-28T22:58:45.804Z,95836.94
2023-02-28T23:01:15.650Z,95805.44
2023-02-28T23:03:45.170Z,95825.66
2023-02-28T23:06:16.360Z,95824.44
2023-02-28T23:08:46.071Z,95808.63
2023-02-28T23:11:20.080Z,95810.94
2023-02-28T23:13:58.446Z,95762.47
2023-02-28T23:16:29.708Z,95806.91
2023-02-28T23:18:59.903Z,95798.09
2023-02-28T23:21:29.336Z,95745.75
2023-02-28T23:23:59.235Z,95803.69
2023-02-28T23:26:27.788Z,95777.63
2023-02-28T23:28:56.317Z,95788.59
2023-02-28T23:31:25.157Z,95788.59
2023-02-28T23:33:53.398Z,95798.66
2023-02-28T23:36:21.957Z,95751.00
2023-02-28T23:38:52.045Z,95786.25
2023-02-28T23:41:23.194Z,95786.84
2023-02-28T23:43:52.532Z,95780.72
2023-02-28T23:46:21.909Z,95767.72
2023-02-28T23:48:50.685Z,95725.91
2023-02-28T23:51:21.826Z,95773.38
2023-02-28T23:53:53.586Z,95775.47
2023-02-28T23:56:24.984Z,95775.03
2023-02-28T23:58:53.287Z,95753.38
